WEATHER DATA

TODAY
Time Temp. Dewp. Hum. Wind dir Wind speed Wind gust Bar. 1h Prec. 24h Prec.
00:08 20.9 9.2 47 135 0.3 0.6 1016.2 0.0000 0.0000
00:19 20.7 9.3 48 270 0.3 0.6 1016.2 0.0000 0.0000
00:29 20.6 9.2 48 270 0.3 0.6 1016.1 0.0000 0.0000
00:39 20.5 9.4 49 225 0.3 0.6 1016.2 0.0000 0.0000
00:49 20.4 9.3 49 135 0.3 0.6 1016.2 0.0000 0.0000
01:00 20.2 9.2 49 18 0.3 0.6 1016.2 0.0000 0.0000
01:09 20.1 9.1 49 0 0.3 0.6 1016.2 0.0000 0.0000
01:19 20 9.3 50 225 0.3 0.6 1016.2 0.0000 0.0000
01:29 19.9 9.2 50 315 0.3 0.6 1016.2 0.0000 0.0000
01:40 19.9 9.2 50 45 0.3 0.6 1016.1 0.0000 0.0000
01:50 19.8 9.1 50 0.3 0.6 1016.1 0.0000 0.0000
02:00 19.7 9.3 51 0.3 0.6 1016.1 0.0000 0.0000
02:10 19.6 9.2 51 180 0.3 0.6 1016.1 0.0000 0.0000
02:20 19.4 9.3 52 225 0.3 0.6 1016.1 0.0000 0.0000
02:30 19.3 9.2 52 0.3 0.6 1016.1 0.0000 0.0000
02:40 19.1 9.3 53 0.3 0.6 1016.1 0.0000 0.0000
02:51 19 9.2 53 225 0.3 0.6 1016 0.0000 0.0000
03:01 18.9 8.8 52 225 0.3 0.6 1016 0.0000 0.0000
03:11 18.8 8.7 52 225 0.3 0.6 1015.9 0.0000 0.0000
03:21 18.7 8.7 52 180 0.3 0.6 1015.9 0.0000 0.0000
03:31 18.7 8.7 52 0.3 0.6 1015.9 0.0000 0.0000
03:41 18.6 8.8 53 198 0.3 0.6 1015.8 0.0000 0.0000
03:51 18.6 8.8 53 0 0.3 1015.8 0.0000 0.0000
04:02 18.6 8.8 53 225 0.3 0.6 1015.8 0.0000 0.0000
04:12 18.6 8.8 53 0.3 0.6 1015.8 0.0000 0.0000
04:22 18.6 8.8 53 198 0.3 0.6 1015.8 0.0000 0.0000
04:31 18.5 8.8 53 161 0.3 0.6 1015.8 0.0000 0.0000
04:42 18.5 8.8 53 135 0.3 0.6 1015.8 0.0000 0.0000
04:52 18.5 8.8 53 0 0.6 1015.8 0.0000 0.0000
05:02 18.5 9 54 225 0.3 0.6 1015.7 0.0000 0.0000
05:12 18.4 8.7 53 180 0.3 0.6 1015.8 0.0000 0.0000
05:23 18.3 8.6 53 180 0.3 0.6 1015.8 0.0000 0.0000
05:32 18.3 8.6 53 315 0.3 0.6 1015.9 0.0000 0.0000
05:42 19.2 9.4 53 90 0.3 0.6 1015.8 0.0000 0.0000
05:53 20 9.6 51 126 0.3 0.8 1015.9 0.0000 0.0000
06:03 20.4 9.6 50 90 0.3 0.6 1015.9 0.0000 0.0000
06:13 20.8 9.7 49 128 0.3 0.6 1015.8 0.0000 0.0000
06:23 21 9.9 49 90 0.3 0.6 1015.8 0.0000 0.0000
06:34 21.2 10.1 49 90 0.3 0.6 1015.8 0.0000 0.0000
06:43 20.5 9.4 49 135 0.3 0.6 1015.8 0.0000 0.0000
06:53 19.7 9.3 51 225 0.3 0.6 1015.9 0.0000 0.0000
07:04 19.2 9.1 52 0.3 0.6 1015.9 0.0000 0.0000
07:14 18.7 8.9 53 135 0.3 0.6 1016 0.0000 0.0000
07:24 18.4 8.7 53 225 0.3 0.6 1016 0.0000 0.0000
07:34 18.2 8.7 54 0.3 0.6 1016.1 0.0000 0.0000
07:45 18 8.8 55 0 0.6 1016.1 0.0000 0.0000
07:54 17.9 8.7 55 168 0.3 0.6 1016.2 0.0000 0.0000
08:04 17.7 8.8 56 135 0.3 0.6 1016.4 0.0000 0.0000
08:14 17.7 8.8 56 0.3 0.6 1016.4 0.0000 0.0000
08:25 17.6 8.7 56 206 0.3 0.6 1016.6 0.0000 0.0000
08:35 17.5 8.9 57 0 0.6 1016.8 0.0000 0.0000
08:45 17.5 8.9 57 0 0.6 1016.8 0.0000 0.0000
08:55 17.4 8.8 57 171 0.3 0.6 1016.9 0.0000 0.0000
09:06 17.5 8.9 57 0 0.3 1016.9 0.0000 0.0000
09:15 17.6 9 57 135 0.3 0.6 1016.8 0.0000 0.0000
09:25 17.8 9.2 57 135 0.3 0.6 1016.9 0.0000 0.0000
09:36 17.9 9.3 57 135 0.3 0.3 1017 0.0000 0.0000
09:46 18.1 9.5 57 135 0.3 0.6 1017.1 0.0000 0.0000
09:56 18.3 9.4 56 135 0.3 0.6 1017.3 0.0000 0.0000
10:06 18.4 9.2 55 149 0.3 0.8 1017.4 0.0000 0.0000
10:16 18.5 9.3 55 180 0.3 0.6 1017.4 0.0000 0.0000
10:26 18.7 9.5 55 173 0.3 0.6 1017.4 0.0000 0.0000
10:36 18.9 9.7 55 171 0.3 0.8 1017.3 0.0000 0.0000
10:47 19.2 10 55 161 0.3 0.6 1017.3 0.0000 0.0000
10:57 19.4 10.1 55 156 0.3 0.6 1017.4 0.0000 0.0000
11:07 19.8 10.2 54 153 0.3 0.8 1017.4 0.0000 0.0000
11:16 20 10.1 53 216 0.3 1.1 1017.5 0.0000 0.0000
11:27 20.3 10.4 53 158 0.3 0.8 1017.5 0.0000 0.0000
11:37 20.6 10.4 52 168 0.3 0.6 1017.4 0.0000 0.0000
11:47 21 10.5 51 173 0.3 0.6 1017.4 0.0000 0.0000
11:57 21.4 10.9 51 203 0.3 1.1 1017.5 0.0000 0.0000
12:08 21.7 10.8 50 161 0.3 0.8 1017.5 0.0000 0.0000
12:18 22.1 10.9 49 206 0.3 0.8 1017.4 0.0000 0.0000
12:27 22.3 11.1 49 180 0.3 0.6 1017.4 0.0000 0.0000
12:38 22.6 11 48 225 0.3 0.6 1017.3 0.0000 0.0000
12:48 23.1 11.2 47 225 0.3 0.6 1017.3 0.0000 0.0000
12:58 23.6 11.3 46 198 0.3 0.6 1017.2 0.0000 0.0000
13:08 24 11.7 46 225 0.3 0.8 1017.2 0.0000 0.0000
13:19 24.4 11.7 45 225 0.3 0.8 1017 0.0000 0.0000
13:29 24.7 11.6 44 225 0.3 0.6 1017 0.0000 0.0000
13:40 25.1 12 44 225 0.3 0.6 1016.9 0.0000 0.0000
13:49 25.5 12.4 44 225 0.3 0.6 1016.9 0.0000 0.0000
14:00 25.8 11.9 42 180 0.3 0.6 1016.8 0.0000 0.0000
14:10 26.3 12.4 42 215 0.3 0.6 1016.8 0.0000 0.0000
14:20 26.7 12.7 42 225 0.3 0.6 1016.5 0.0000 0.0000
14:30 27.1 12.7 41 0 0.6 1016.5 0.0000 0.0000
14:41 27.5 12.7 40 0.3 0.6 1016.5 0.0000 0.0000
14:50 27.8 13 40 0.3 0.6 1016.5 0.0000 0.0000
15:00 28.1 12.9 39 0 0.3 1016.5 0.0000 0.0000
15:11 28.4 13.1 39 0 0.6 1016.4 0.0000 0.0000
15:21 28.5 13.2 39 90 0.3 0.6 1016.4 0.0000 0.0000
15:31 28.6 13.3 39 0 0.6 1016.3 0.0000 0.0000
15:41 28.8 13.5 39 0 0.6 1016.4 0.0000 0.0000
15:52 28.8 13.1 38 135 0.3 0.8 1016.4 0.0000 0.0000
16:01 28.7 13 38 0 0.6 1016.3 0.0000 0.0000
16:11 28.5 13.2 39 0.3 0.6 1016.3 0.0000 0.0000
16:22 28.3 13 39 90 0.3 0.6 1016.3 0.0000 0.0000
16:32 28.1 13.2 40 0 0.6 1016.3 0.0000 0.0000
16:42 27.8 13 40 45 0.3 0.6 1016.4 0.0000 0.0000
16:52 27.5 12.7 40 0.3 0.6 1016.2 0.0000 0.0000
17:03 27.1 12.7 41 90 0.3 0.6 1016.3 0.0000 0.0000
17:12 26.7 12.4 41 270 0.3 0.8 1016.3 0.0000 0.0000
17:22 26.4 12.8 43 270 0.3 0.8 1016.2 0.0000 0.0000

DAY STATISTIC

2018-10-18
TEMPERATURE
AVERAGE
21.3
HIGH
28.8
15:41
LOW
17.4
08:55
PRESSURE
AVERAGE
1016.5
HIGH
1017.5
11:16
LOW
1015.7
05:02
DEWPOINT
AVERAGE
10.2
HIGH
13.5
15:41
LOW
8.6
05:23
HUMIDITY
AVERAGE
50
HIGH
57
08:35
LOW
38
15:52
WIND SPEED
AVERAGE
0.3
HIGH
0.3
00:08
WIND GUST
AVERAGE
0.6
HIGH
1.1
11:16
WIND DIRECTION
PREVAILING
SW
21.4%
N
1.9
NE
1.9
E
6.8
SE
16.5
S
20.4
SW
21.4
W
3.9
NW
1.9
PRECIPITATION
RAIN HOUR
0.0
RAIN DAY
0.0
TEMPERATURE (°C)
LOW
17.4
HIGH
28.8
AVERAGE
21.3
PRESSURE (hpa)
LOW
1015.7
HIGH
1017.5
AVERAGE
1016.5
DEVICE